Wellen, Belgium
Current Conditions -  °F | °C
As of 5:50 AM on Thursday 23 Oct 2014 (Local Time) from EBLG Reporting Station
Broken Clouds Broken Clouds  
Wind Chill: 45°   Ceiling: 4200
Heat Index: 48°   Visibility: 5mi
Dew Point: 45°   Wind: 8mph
Humidity: 87%   Direction: 240°WSW
Pressure: 30.21"   Gusts: NA
Location:  50.84°N, 5.34°E
Report Text: EBLG 230350Z 24007KT 8000 BKN042 09/07 Q1023 NOSIG
Loading
Personal Weather Stations






























Interactive Weather Map
Tropical Storm Tracking
New forecast layout! Learn more

10-Day Weather Forecast

Advertisements
Track Severe Weather on mobile